VOE93DP LIEO-LIPX
Flight info
| Callsign | VOE93DP |
|---|---|
| Flight time | 0h 53m |
| Altitude | 32000 |
| Route | BATOX DCT MAMAR DCT ROSKI DCT GINAR DCT LUPOS DCT RIPDU L995 OSBUL |
| Aircraft | A320/M-SDE3FGHIRWY/LB1 |
Departure
| Time | 2026-05-05 18:06 |
|---|---|
| Airport | Olbia Costa Smeralda Airport (LIEO) |
Arrival
| Time | 2026-05-05 18:59 |
|---|---|
| Airport | Verona Villafranca Valerio Catullo Airport (LIPX) |
| Time | Latitude | Longitude | Altitude | Speed | Heading |
|---|---|---|---|---|---|
| 2026-05-05 17:36 | 40.90310 | 9.51772 | 34 ft | 0 kts | 27° |
| 2026-05-05 17:57 | 40.90316 | 9.51799 | 32 ft | 6 kts | 99° |
| 2026-05-05 17:57 | 40.90283 | 9.51813 | 34 ft | 5 kts | 184° |
| 2026-05-05 17:58 | 40.90253 | 9.51803 | 34 ft | 4 kts | 204° |
| 2026-05-05 17:58 | 40.90231 | 9.51789 | 33 ft | 3 kts | 212° |
| 2026-05-05 17:58 | 40.90208 | 9.51742 | 34 ft | 7 kts | 239° |
| 2026-05-05 17:58 | 40.90182 | 9.51685 | 34 ft | 8 kts | 238° |
| 2026-05-05 17:59 | 40.90148 | 9.51619 | 34 ft | 9 kts | 235° |
| 2026-05-05 17:59 | 40.90108 | 9.51542 | 33 ft | 10 kts | 235° |
| 2026-05-05 17:59 | 40.90066 | 9.51479 | 33 ft | 8 kts | 201° |
| 2026-05-05 17:59 | 40.90028 | 9.51497 | 33 ft | 0 kts | 143° |
| 2026-05-05 18:00 | 40.90027 | 9.51498 | 34 ft | 0 kts | 143° |
| 2026-05-05 18:00 | 40.90026 | 9.51499 | 33 ft | 2 kts | 143° |
| 2026-05-05 18:00 | 40.89978 | 9.51517 | 34 ft | 13 kts | 183° |
| 2026-05-05 18:00 | 40.89902 | 9.51441 | 33 ft | 14 kts | 234° |
| 2026-05-05 18:01 | 40.89843 | 9.51328 | 34 ft | 17 kts | 235° |
| 2026-05-05 18:01 | 40.89775 | 9.51198 | 34 ft | 18 kts | 235° |
| 2026-05-05 18:01 | 40.89701 | 9.51054 | 34 ft | 20 kts | 235° |
| 2026-05-05 18:01 | 40.89618 | 9.50899 | 33 ft | 22 kts | 234° |
| 2026-05-05 18:02 | 40.89529 | 9.50730 | 33 ft | 23 kts | 235° |
| 2026-05-05 18:02 | 40.89442 | 9.50563 | 34 ft | 11 kts | 236° |
| 2026-05-05 18:02 | 40.89403 | 9.50487 | 33 ft | 9 kts | 236° |
| 2026-05-05 18:02 | 40.89384 | 9.50458 | 34 ft | 0 kts | 219° |
| 2026-05-05 18:03 | 40.89372 | 9.50450 | 34 ft | 6 kts | 204° |
| 2026-05-05 18:03 | 40.89295 | 9.50456 | 34 ft | 15 kts | 144° |
| 2026-05-05 18:04 | 40.89269 | 9.50577 | 35 ft | 13 kts | 96° |
| 2026-05-05 18:04 | 40.89280 | 9.50640 | 34 ft | 0 kts | 57° |
| 2026-05-05 18:05 | 40.89292 | 9.50667 | 34 ft | 13 kts | 59° |
| 2026-05-05 18:05 | 40.89493 | 9.51048 | 32 ft | 87 kts | 55° |
| 2026-05-05 18:05 | 40.89954 | 9.51922 | 33 ft | 144 kts | 55° |
| 2026-05-05 18:05 | 40.90563 | 9.53095 | 468 ft | 152 kts | 56° |
| 2026-05-05 18:06 | 40.91163 | 9.54269 | 1113 ft | 155 kts | 55° |
| 2026-05-05 18:06 | 40.91370 | 9.54666 | 1338 ft | 156 kts | 56° |
| 2026-05-05 18:06 | 40.92526 | 9.56831 | 1993 ft | 191 kts | 55° |
| 2026-05-05 18:06 | 40.93319 | 9.58343 | 2463 ft | 208 kts | 56° |
| 2026-05-05 18:07 | 40.94190 | 9.60002 | 2848 ft | 232 kts | 56° |
| 2026-05-05 18:07 | 40.95155 | 9.61813 | 3459 ft | 248 kts | 56° |
| 2026-05-05 18:07 | 40.96161 | 9.63688 | 4333 ft | 252 kts | 56° |
| 2026-05-05 18:07 | 40.97186 | 9.65596 | 5256 ft | 256 kts | 56° |
| 2026-05-05 18:08 | 40.98225 | 9.67530 | 6175 ft | 260 kts | 55° |
| 2026-05-05 18:08 | 40.99276 | 9.69534 | 6920 ft | 275 kts | 57° |
| 2026-05-05 18:08 | 41.00348 | 9.71710 | 7590 ft | 287 kts | 58° |
| 2026-05-05 18:08 | 41.01425 | 9.73971 | 8451 ft | 293 kts | 58° |
| 2026-05-05 18:09 | 41.02514 | 9.76280 | 9338 ft | 297 kts | 58° |
| 2026-05-05 18:09 | 41.03620 | 9.78618 | 10185 ft | 304 kts | 58° |
| 2026-05-05 18:09 | 41.04790 | 9.81076 | 10558 ft | 327 kts | 57° |
| 2026-05-05 18:09 | 41.06049 | 9.83709 | 10914 ft | 348 kts | 57° |
| 2026-05-05 18:10 | 41.07363 | 9.86454 | 11598 ft | 356 kts | 57° |
| 2026-05-05 18:10 | 41.08700 | 9.89239 | 12328 ft | 361 kts | 57° |
| 2026-05-05 18:10 | 41.09870 | 9.91678 | 12964 ft | 365 kts | 57° |
| 2026-05-05 18:10 | 41.11240 | 9.94536 | 13736 ft | 369 kts | 57° |
| 2026-05-05 18:11 | 41.12624 | 9.97426 | 14511 ft | 372 kts | 57° |
| 2026-05-05 18:11 | 41.14017 | 10.00342 | 15235 ft | 376 kts | 57° |
| 2026-05-05 18:11 | 41.14945 | 10.02291 | 15693 ft | 379 kts | 57° |
| 2026-05-05 18:11 | 41.16361 | 10.05266 | 16389 ft | 383 kts | 57° |
| 2026-05-05 18:12 | 41.17788 | 10.08268 | 17056 ft | 387 kts | 57° |
| 2026-05-05 18:12 | 41.19249 | 10.11351 | 17722 ft | 391 kts | 58° |
| 2026-05-05 18:12 | 41.20702 | 10.14418 | 18360 ft | 395 kts | 57° |
| 2026-05-05 18:12 | 41.22359 | 10.17345 | 18986 ft | 398 kts | 49° |
| 2026-05-05 18:13 | 41.24161 | 10.20161 | 19590 ft | 402 kts | 49° |
| 2026-05-05 18:13 | 41.25958 | 10.22968 | 20192 ft | 406 kts | 49° |
| 2026-05-05 18:13 | 41.27797 | 10.25848 | 20785 ft | 410 kts | 49° |
| 2026-05-05 18:13 | 41.29647 | 10.28759 | 21363 ft | 414 kts | 49° |
| 2026-05-05 18:14 | 41.31509 | 10.31700 | 21928 ft | 418 kts | 49° |
| 2026-05-05 18:14 | 41.33391 | 10.34671 | 22474 ft | 422 kts | 49° |
| 2026-05-05 18:14 | 41.35288 | 10.37660 | 23005 ft | 426 kts | 49° |
| 2026-05-05 18:14 | 41.37235 | 10.40729 | 23529 ft | 429 kts | 49° |
| 2026-05-05 18:15 | 41.39143 | 10.43739 | 24026 ft | 433 kts | 49° |
| 2026-05-05 18:15 | 41.41087 | 10.46816 | 24515 ft | 436 kts | 49° |
| 2026-05-05 18:15 | 41.43047 | 10.49922 | 24974 ft | 439 kts | 49° |
| 2026-05-05 18:15 | 41.45020 | 10.53056 | 25421 ft | 443 kts | 49° |
| 2026-05-05 18:16 | 41.47004 | 10.56214 | 25853 ft | 446 kts | 49° |
| 2026-05-05 18:16 | 41.49000 | 10.59396 | 26267 ft | 449 kts | 49° |
| 2026-05-05 18:16 | 41.51012 | 10.62602 | 26667 ft | 452 kts | 49° |
| 2026-05-05 18:16 | 41.53042 | 10.65826 | 27062 ft | 455 kts | 49° |
| 2026-05-05 18:17 | 41.55085 | 10.69074 | 27446 ft | 458 kts | 49° |
| 2026-05-05 18:17 | 41.57139 | 10.72345 | 27826 ft | 461 kts | 49° |
| 2026-05-05 18:17 | 41.59203 | 10.75645 | 28201 ft | 464 kts | 49° |
| 2026-05-05 18:17 | 41.61276 | 10.78966 | 28560 ft | 467 kts | 49° |
| 2026-05-05 18:18 | 41.63363 | 10.82307 | 28897 ft | 469 kts | 49° |
| 2026-05-05 18:18 | 41.65457 | 10.85664 | 29229 ft | 472 kts | 49° |
| 2026-05-05 18:18 | 41.67562 | 10.89051 | 29540 ft | 474 kts | 49° |
| 2026-05-05 18:18 | 41.69675 | 10.92454 | 29847 ft | 477 kts | 49° |
| 2026-05-05 18:19 | 41.71799 | 10.95873 | 30151 ft | 479 kts | 49° |
| 2026-05-05 18:19 | 41.73935 | 10.99313 | 30442 ft | 481 kts | 48° |
| 2026-05-05 18:19 | 41.76244 | 11.02555 | 30718 ft | 480 kts | 39° |
| 2026-05-05 18:19 | 41.78925 | 11.05203 | 30982 ft | 479 kts | 28° |
| 2026-05-05 18:20 | 41.81893 | 11.07178 | 31278 ft | 474 kts | 18° |
| 2026-05-05 18:20 | 41.85032 | 11.08450 | 31631 ft | 469 kts | 8° |
| 2026-05-05 18:20 | 41.88243 | 11.09006 | 31937 ft | 464 kts | 359° |
| 2026-05-05 18:21 | 41.94573 | 11.08647 | 32027 ft | 448 kts | 353° |
| 2026-05-05 18:21 | 42.00771 | 11.08148 | 32027 ft | 445 kts | 353° |
| 2026-05-05 18:22 | 42.06910 | 11.07657 | 32026 ft | 445 kts | 353° |
| 2026-05-05 18:22 | 42.13093 | 11.07161 | 32026 ft | 445 kts | 353° |
| 2026-05-05 18:23 | 42.19282 | 11.06660 | 32025 ft | 445 kts | 352° |
| 2026-05-05 18:23 | 42.25470 | 11.06158 | 32021 ft | 445 kts | 353° |
| 2026-05-05 18:24 | 42.31655 | 11.05668 | 32017 ft | 445 kts | 353° |
| 2026-05-05 18:24 | 42.37838 | 11.05176 | 32015 ft | 445 kts | 352° |
| 2026-05-05 18:25 | 42.44019 | 11.04671 | 32009 ft | 445 kts | 352° |
| 2026-05-05 18:25 | 42.50201 | 11.04169 | 32013 ft | 445 kts | 353° |
| 2026-05-05 18:26 | 42.56385 | 11.03668 | 32010 ft | 445 kts | 353° |
| 2026-05-05 18:26 | 42.62575 | 11.03171 | 32006 ft | 446 kts | 352° |
| 2026-05-05 18:27 | 42.68763 | 11.02680 | 32006 ft | 446 kts | 352° |
| 2026-05-05 18:27 | 42.74878 | 11.01576 | 32004 ft | 442 kts | 346° |
| 2026-05-05 18:28 | 42.83986 | 10.99533 | 31993 ft | 442 kts | 346° |
| 2026-05-05 18:28 | 42.90054 | 10.98169 | 31988 ft | 442 kts | 346° |
| 2026-05-05 18:29 | 42.96114 | 10.96813 | 31988 ft | 442 kts | 347° |
| 2026-05-05 18:29 | 43.02195 | 10.95464 | 31980 ft | 443 kts | 347° |
| 2026-05-05 18:30 | 43.08265 | 10.94102 | 31989 ft | 443 kts | 347° |
| 2026-05-05 18:30 | 43.14352 | 10.92732 | 31998 ft | 443 kts | 346° |
| 2026-05-05 18:31 | 43.20432 | 10.91354 | 31999 ft | 443 kts | 346° |
| 2026-05-05 18:31 | 43.26469 | 10.89976 | 31999 ft | 442 kts | 346° |
| 2026-05-05 18:32 | 43.32535 | 10.88597 | 31989 ft | 442 kts | 346° |
| 2026-05-05 18:32 | 43.38600 | 10.87223 | 31989 ft | 442 kts | 346° |
| 2026-05-05 18:33 | 43.44669 | 10.85844 | 31980 ft | 442 kts | 346° |
| 2026-05-05 18:33 | 43.50730 | 10.84472 | 31978 ft | 441 kts | 346° |
| 2026-05-05 18:34 | 43.56785 | 10.83088 | 31977 ft | 441 kts | 346° |
| 2026-05-05 18:34 | 43.62836 | 10.81705 | 31978 ft | 441 kts | 346° |
| 2026-05-05 18:35 | 43.68868 | 10.80211 | 31973 ft | 440 kts | 345° |
| 2026-05-05 18:35 | 43.74869 | 10.78571 | 31981 ft | 440 kts | 344° |
| 2026-05-05 18:36 | 43.80872 | 10.76927 | 31983 ft | 439 kts | 345° |
| 2026-05-05 18:36 | 43.86858 | 10.75322 | 31988 ft | 440 kts | 345° |
| 2026-05-05 18:37 | 43.92876 | 10.73727 | 31997 ft | 441 kts | 345° |
| 2026-05-05 18:37 | 43.98899 | 10.72118 | 32009 ft | 440 kts | 345° |
| 2026-05-05 18:38 | 44.01897 | 10.71309 | 31853 ft | 439 kts | 345° |
| 2026-05-05 18:38 | 44.04894 | 10.70497 | 31072 ft | 440 kts | 345° |
| 2026-05-05 18:38 | 44.07900 | 10.69680 | 30387 ft | 438 kts | 345° |
| 2026-05-05 18:38 | 44.10883 | 10.68874 | 29779 ft | 435 kts | 345° |
| 2026-05-05 18:39 | 44.13835 | 10.68079 | 29190 ft | 431 kts | 345° |
| 2026-05-05 18:39 | 44.16768 | 10.67289 | 28616 ft | 428 kts | 345° |
| 2026-05-05 18:39 | 44.19684 | 10.66503 | 28046 ft | 425 kts | 346° |
| 2026-05-05 18:39 | 44.22566 | 10.65726 | 27490 ft | 421 kts | 346° |
| 2026-05-05 18:40 | 44.25432 | 10.64953 | 26927 ft | 418 kts | 346° |
| 2026-05-05 18:40 | 44.28273 | 10.64185 | 26360 ft | 415 kts | 346° |
| 2026-05-05 18:40 | 44.31111 | 10.63416 | 25803 ft | 412 kts | 346° |
| 2026-05-05 18:40 | 44.33917 | 10.62656 | 25247 ft | 409 kts | 346° |
| 2026-05-05 18:41 | 44.36700 | 10.61898 | 24703 ft | 407 kts | 346° |
| 2026-05-05 18:41 | 44.39468 | 10.61141 | 24165 ft | 404 kts | 346° |
| 2026-05-05 18:41 | 44.42221 | 10.60387 | 23631 ft | 402 kts | 346° |
| 2026-05-05 18:41 | 44.44916 | 10.59651 | 23140 ft | 399 kts | 346° |
| 2026-05-05 18:42 | 44.47626 | 10.58908 | 22641 ft | 395 kts | 345° |
| 2026-05-05 18:42 | 44.50275 | 10.57794 | 22144 ft | 390 kts | 335° |
| 2026-05-05 18:42 | 44.52664 | 10.56159 | 21659 ft | 384 kts | 326° |
| 2026-05-05 18:42 | 44.54934 | 10.54117 | 21148 ft | 381 kts | 324° |
| 2026-05-05 18:43 | 44.57127 | 10.52127 | 20677 ft | 379 kts | 324° |
| 2026-05-05 18:43 | 44.59329 | 10.50134 | 20192 ft | 376 kts | 324° |
| 2026-05-05 18:43 | 44.61527 | 10.48148 | 19709 ft | 374 kts | 324° |
| 2026-05-05 18:43 | 44.63710 | 10.46175 | 19235 ft | 372 kts | 324° |
| 2026-05-05 18:44 | 44.65879 | 10.44212 | 18992 ft | 371 kts | 324° |
| 2026-05-05 18:44 | 44.68050 | 10.42241 | 18989 ft | 372 kts | 324° |
| 2026-05-05 18:44 | 44.70221 | 10.40266 | 18983 ft | 372 kts | 324° |
| 2026-05-05 18:44 | 44.72393 | 10.38291 | 18978 ft | 372 kts | 324° |
| 2026-05-05 18:45 | 44.74567 | 10.36315 | 18973 ft | 372 kts | 324° |
| 2026-05-05 18:45 | 44.76739 | 10.34338 | 18973 ft | 372 kts | 324° |
| 2026-05-05 18:45 | 44.78907 | 10.32362 | 18879 ft | 370 kts | 324° |
| 2026-05-05 18:45 | 44.81080 | 10.30480 | 18146 ft | 365 kts | 330° |
| 2026-05-05 18:46 | 44.83430 | 10.29156 | 17277 ft | 364 kts | 342° |
| 2026-05-05 18:46 | 44.85907 | 10.28448 | 16431 ft | 362 kts | 348° |
| 2026-05-05 18:46 | 44.88379 | 10.27866 | 15610 ft | 358 kts | 348° |
| 2026-05-05 18:46 | 44.90820 | 10.27287 | 14806 ft | 354 kts | 348° |
| 2026-05-05 18:47 | 44.93230 | 10.26712 | 14012 ft | 349 kts | 348° |
| 2026-05-05 18:47 | 44.95607 | 10.26139 | 13229 ft | 344 kts | 348° |
| 2026-05-05 18:47 | 44.97949 | 10.25573 | 12419 ft | 339 kts | 348° |
| 2026-05-05 18:47 | 45.00271 | 10.25050 | 11603 ft | 336 kts | 353° |
| 2026-05-05 18:48 | 45.02593 | 10.25098 | 10801 ft | 334 kts | 6° |
| 2026-05-05 18:48 | 45.04838 | 10.25904 | 9983 ft | 332 kts | 20° |
| 2026-05-05 18:48 | 45.06819 | 10.27410 | 9659 ft | 313 kts | 34° |
| 2026-05-05 18:48 | 45.08466 | 10.29299 | 9213 ft | 300 kts | 41° |
| 2026-05-05 18:49 | 45.10023 | 10.31222 | 8594 ft | 295 kts | 41° |
| 2026-05-05 18:49 | 45.11552 | 10.33122 | 7939 ft | 290 kts | 41° |
| 2026-05-05 18:49 | 45.13056 | 10.34998 | 7257 ft | 286 kts | 41° |
| 2026-05-05 18:49 | 45.14539 | 10.36847 | 6573 ft | 283 kts | 41° |
| 2026-05-05 18:50 | 45.16007 | 10.38675 | 5890 ft | 279 kts | 41° |
| 2026-05-05 18:50 | 45.17238 | 10.40753 | 5220 ft | 274 kts | 64° |
| 2026-05-05 18:50 | 45.17684 | 10.42591 | 4736 ft | 269 kts | 82° |
| 2026-05-05 18:50 | 45.17694 | 10.44558 | 4253 ft | 265 kts | 102° |
| 2026-05-05 18:51 | 45.17042 | 10.46905 | 4050 ft | 250 kts | 124° |
| 2026-05-05 18:51 | 45.15978 | 10.48741 | 4001 ft | 232 kts | 129° |
| 2026-05-05 18:51 | 45.15297 | 10.50732 | 4010 ft | 223 kts | 102° |
| 2026-05-05 18:51 | 45.15317 | 10.52904 | 4001 ft | 222 kts | 75° |
| 2026-05-05 18:52 | 45.16023 | 10.54833 | 4023 ft | 223 kts | 48° |
| 2026-05-05 18:52 | 45.17103 | 10.56410 | 4016 ft | 223 kts | 45° |
| 2026-05-05 18:52 | 45.18200 | 10.57972 | 4017 ft | 224 kts | 45° |
| 2026-05-05 18:52 | 45.19295 | 10.59541 | 4006 ft | 222 kts | 45° |
| 2026-05-05 18:53 | 45.20344 | 10.61051 | 3997 ft | 208 kts | 45° |
| 2026-05-05 18:53 | 45.21344 | 10.62489 | 4005 ft | 203 kts | 45° |
| 2026-05-05 18:53 | 45.22333 | 10.63914 | 4001 ft | 203 kts | 45° |
| 2026-05-05 18:53 | 45.23321 | 10.65337 | 3998 ft | 202 kts | 45° |
| 2026-05-05 18:54 | 45.24310 | 10.66762 | 4013 ft | 203 kts | 45° |
| 2026-05-05 18:54 | 45.25305 | 10.68197 | 3900 ft | 203 kts | 45° |
| 2026-05-05 18:54 | 45.26291 | 10.69620 | 3677 ft | 202 kts | 46° |
| 2026-05-05 18:54 | 45.27278 | 10.71044 | 3418 ft | 202 kts | 45° |
| 2026-05-05 18:55 | 45.28266 | 10.72471 | 3151 ft | 202 kts | 45° |
| 2026-05-05 18:55 | 45.29253 | 10.73896 | 2889 ft | 202 kts | 45° |
| 2026-05-05 18:55 | 45.30223 | 10.75298 | 2647 ft | 197 kts | 46° |
| 2026-05-05 18:55 | 45.31172 | 10.76671 | 2363 ft | 192 kts | 45° |
| 2026-05-05 18:56 | 45.32082 | 10.77989 | 2108 ft | 181 kts | 46° |
| 2026-05-05 18:56 | 45.32934 | 10.79222 | 1866 ft | 169 kts | 46° |
| 2026-05-05 18:56 | 45.33462 | 10.79987 | 1741 ft | 158 kts | 46° |
| 2026-05-05 18:56 | 45.34200 | 10.81056 | 1527 ft | 146 kts | 45° |
| 2026-05-05 18:57 | 45.34897 | 10.82065 | 1342 ft | 141 kts | 46° |
| 2026-05-05 18:57 | 45.35575 | 10.83047 | 1160 ft | 139 kts | 46° |
| 2026-05-05 18:57 | 45.36249 | 10.84018 | 1022 ft | 138 kts | 46° |
| 2026-05-05 18:57 | 45.36920 | 10.84994 | 813 ft | 137 kts | 46° |
| 2026-05-05 18:58 | 45.37586 | 10.85961 | 618 ft | 137 kts | 46° |
| 2026-05-05 18:58 | 45.38247 | 10.86925 | 420 ft | 136 kts | 45° |
| 2026-05-05 18:58 | 45.38905 | 10.87887 | 256 ft | 135 kts | 45° |
| 2026-05-05 18:58 | 45.39493 | 10.88742 | 239 ft | 100 kts | 46° |
| 2026-05-05 18:59 | 45.39869 | 10.89287 | 240 ft | 63 kts | 46° |
| 2026-05-05 18:59 | 45.40144 | 10.89688 | 247 ft | 50 kts | 46° |
| 2026-05-05 18:59 | 45.40278 | 10.89918 | 247 ft | 17 kts | 72° |
| 2026-05-05 18:59 | 45.40298 | 10.90043 | 245 ft | 0 kts | 79° |
| 2026-05-05 19:00 | 45.40299 | 10.90049 | 245 ft | 1 kts | 77° |
| 2026-05-05 19:00 | 45.40302 | 10.90065 | 245 ft | 2 kts | 76° |
| 2026-05-05 19:00 | 45.40307 | 10.90091 | 244 ft | 3 kts | 76° |
| 2026-05-05 19:00 | 45.40313 | 10.90125 | 244 ft | 4 kts | 76° |
| 2026-05-05 19:01 | 45.40319 | 10.90164 | 243 ft | 4 kts | 76° |
| 2026-05-05 19:01 | 45.40327 | 10.90209 | 243 ft | 5 kts | 76° |
| 2026-05-05 19:01 | 45.40335 | 10.90255 | 242 ft | 5 kts | 76° |
| 2026-05-05 19:01 | 45.40348 | 10.90301 | 242 ft | 5 kts | 59° |
| 2026-05-05 19:02 | 45.40381 | 10.90356 | 242 ft | 8 kts | 46° |
| 2026-05-05 19:02 | 45.40416 | 10.90407 | 242 ft | 7 kts | 45° |
| 2026-05-05 19:02 | 45.40447 | 10.90451 | 242 ft | 6 kts | 45° |
| 2026-05-05 19:02 | 45.40485 | 10.90506 | 242 ft | 8 kts | 45° |
| 2026-05-05 19:03 | 45.40514 | 10.90563 | 242 ft | 5 kts | 90° |
| 2026-05-05 19:03 | 45.40491 | 10.90595 | 242 ft | 4 kts | 142° |
| 2026-05-05 19:03 | 45.40471 | 10.90622 | 242 ft | 3 kts | 135° |
| 2026-05-05 19:03 | 45.40466 | 10.90628 | 242 ft | 0 kts | 135° |